sensor_id;sensor_type;location;lat;lon;timestamp;pressure;altitude;pressure_sealevel;temperature;humidity
84232;BME280;74368;48.022;13.830;2023-12-28T00:01:07;96912.25;;;0.80;89.74
84232;BME280;74368;48.022;13.830;2023-12-28T00:03:33;96897.13;;;0.72;90.00
84232;BME280;74368;48.022;13.830;2023-12-28T00:05:58;96901.44;;;0.73;90.43
84232;BME280;74368;48.022;13.830;2023-12-28T00:08:23;96900.25;;;0.76;89.83
84232;BME280;74368;48.022;13.830;2023-12-28T00:10:48;96900.13;;;0.77;91.42
84232;BME280;74368;48.022;13.830;2023-12-28T00:13:14;96905.75;;;0.82;90.49
84232;BME280;74368;48.022;13.830;2023-12-28T00:15:39;96922.03;;;0.95;91.18
84232;BME280;74368;48.022;13.830;2023-12-28T00:18:04;96908.88;;;1.18;89.46
84232;BME280;74368;48.022;13.830;2023-12-28T00:20:30;96917.03;;;1.16;89.77
84232;BME280;74368;48.022;13.830;2023-12-28T00:22:55;96914.03;;;1.11;89.44
84232;BME280;74368;48.022;13.830;2023-12-28T00:25:20;96921.00;;;1.20;89.35
84232;BME280;74368;48.022;13.830;2023-12-28T00:27:45;96912.69;;;1.15;89.01
84232;BME280;74368;48.022;13.830;2023-12-28T00:30:11;96918.84;;;1.16;89.07
84232;BME280;74368;48.022;13.830;2023-12-28T00:32:37;96917.03;;;1.16;90.17
84232;BME280;74368;48.022;13.830;2023-12-28T00:35:02;96918.66;;;1.17;90.54
84232;BME280;74368;48.022;13.830;2023-12-28T00:37:29;96919.50;;;1.10;90.64
84232;BME280;74368;48.022;13.830;2023-12-28T00:39:54;96936.31;;;1.10;91.00
84232;BME280;74368;48.022;13.830;2023-12-28T00:42:20;96936.81;;;0.98;91.06
84232;BME280;74368;48.022;13.830;2023-12-28T00:44:45;96946.31;;;0.92;91.46
84232;BME280;74368;48.022;13.830;2023-12-28T00:47:10;96954.09;;;0.86;92.36
84232;BME280;74368;48.022;13.830;2023-12-28T00:49:36;96956.59;;;0.79;91.56
84232;BME280;74368;48.022;13.830;2023-12-28T00:52:01;96959.25;;;0.71;91.56
84232;BME280;74368;48.022;13.830;2023-12-28T00:54:27;96957.09;;;0.66;91.20
84232;BME280;74368;48.022;13.830;2023-12-28T00:56:52;96954.94;;;0.62;90.99
84232;BME280;74368;48.022;13.830;2023-12-28T00:59:17;96951.97;;;0.65;92.02
84232;BME280;74368;48.022;13.830;2023-12-28T01:01:43;96959.09;;;0.81;91.19
84232;BME280;74368;48.022;13.830;2023-12-28T01:04:08;96960.44;;;0.77;91.13
84232;BME280;74368;48.022;13.830;2023-12-28T01:06:33;96955.47;;;0.90;91.07
84232;BME280;74368;48.022;13.830;2023-12-28T01:08:58;96968.25;;;0.86;91.62
84232;BME280;74368;48.022;13.830;2023-12-28T01:11:24;96961.28;;;0.85;91.49
84232;BME280;74368;48.022;13.830;2023-12-28T01:13:51;96971.91;;;0.85;90.91
84232;BME280;74368;48.022;13.830;2023-12-28T01:16:17;96967.91;;;0.89;89.90
84232;BME280;74368;48.022;13.830;2023-12-28T01:18:42;96973.53;;;0.78;90.83
84232;BME280;74368;48.022;13.830;2023-12-28T01:21:08;96964.41;;;0.81;90.31
84232;BME280;74368;48.022;13.830;2023-12-28T01:23:33;96969.59;;;0.82;90.87
84232;BME280;74368;48.022;13.830;2023-12-28T01:25:59;96986.38;;;0.83;90.50
84232;BME280;74368;48.022;13.830;2023-12-28T01:28:24;96987.84;;;0.77;90.72
84232;BME280;74368;48.022;13.830;2023-12-28T01:30:50;96978.06;;;0.78;91.16
84232;BME280;74368;48.022;13.830;2023-12-28T01:33:15;96961.22;;;0.61;90.95
84232;BME280;74368;48.022;13.830;2023-12-28T01:35:41;96981.69;;;0.77;90.15
84232;BME280;74368;48.022;13.830;2023-12-28T01:38:07;96986.50;;;0.73;90.58
84232;BME280;74368;48.022;13.830;2023-12-28T01:40:32;97009.13;;;0.77;91.10
84232;BME280;74368;48.022;13.830;2023-12-28T01:42:57;97007.47;;;0.68;91.08
84232;BME280;74368;48.022;13.830;2023-12-28T01:45:23;97008.94;;;0.62;90.98
84232;BME280;74368;48.022;13.830;2023-12-28T01:47:48;97011.09;;;0.67;91.71
84232;BME280;74368;48.022;13.830;2023-12-28T01:50:15;97005.13;;;0.73;91.32
84232;BME280;74368;48.022;13.830;2023-12-28T01:52:41;97005.78;;;0.83;90.39
84232;BME280;74368;48.022;13.830;2023-12-28T01:55:07;96994.19;;;0.92;90.24
84232;BME280;74368;48.022;13.830;2023-12-28T01:57:34;96989.00;;;0.91;89.93
84232;BME280;74368;48.022;13.830;2023-12-28T01:59:59;96982.53;;;0.93;90.34
84232;BME280;74368;48.022;13.830;2023-12-28T02:02:26;96976.06;;;0.96;89.72
84232;BME280;74368;48.022;13.830;2023-12-28T02:04:52;96970.91;;;0.94;89.84
84232;BME280;74368;48.022;13.830;2023-12-28T02:07:18;96981.69;;;0.93;89.49
84232;BME280;74368;48.022;13.830;2023-12-28T02:09:43;96979.88;;;0.93;89.92
84232;BME280;74368;48.022;13.830;2023-12-28T02:12:09;96969.25;;;0.77;90.50
84232;BME280;74368;48.022;13.830;2023-12-28T02:14:34;96974.88;;;0.74;90.74
84232;BME280;74368;48.022;13.830;2023-12-28T02:19:50;96980.72;;;0.94;89.64
84232;BME280;74368;48.022;13.830;2023-12-28T02:22:16;96972.56;;;0.95;90.72
84232;BME280;74368;48.022;13.830;2023-12-28T02:27:36;96975.03;;;1.05;90.44
84232;BME280;74368;48.022;13.830;2023-12-28T02:30:04;96976.22;;;1.10;89.82
84232;BME280;74368;48.022;13.830;2023-12-28T02:35:34;96966.91;;;0.66;89.63
84232;BME280;74368;48.022;13.830;2023-12-28T02:38:07;96964.56;;;0.55;90.49
84232;BME280;74368;48.022;13.830;2023-12-28T02:40:38;96957.25;;;0.41;89.50
84232;BME280;74368;48.022;13.830;2023-12-28T02:43:05;96967.00;;;0.32;90.27
84232;BME280;74368;48.022;13.830;2023-12-28T02:45:30;96967.34;;;0.21;90.44
84232;BME280;74368;48.022;13.830;2023-12-28T02:47:56;96974.91;;;0.08;90.16
84232;BME280;74368;48.022;13.830;2023-12-28T02:50:21;96960.66;;;0.09;91.78
84232;BME280;74368;48.022;13.830;2023-12-28T02:52:46;96960.16;;;0.14;91.64
84232;BME280;74368;48.022;13.830;2023-12-28T02:55:11;96981.09;;;0.17;91.03
84232;BME280;74368;48.022;13.830;2023-12-28T02:57:37;96988.59;;;0.21;91.45
84232;BME280;74368;48.022;13.830;2023-12-28T03:00:06;96986.75;;;0.22;91.40
84232;BME280;74368;48.022;13.830;2023-12-28T03:02:37;96993.69;;;0.15;92.07
84232;BME280;74368;48.022;13.830;2023-12-28T03:05:03;96991.53;;;0.10;91.85
84232;BME280;74368;48.022;13.830;2023-12-28T03:07:29;96978.25;;;0.10;92.35
84232;BME280;74368;48.022;13.830;2023-12-28T03:09:54;96993.72;;;0.23;91.64
84232;BME280;74368;48.022;13.830;2023-12-28T03:12:19;96996.88;;;0.18;91.65
84232;BME280;74368;48.022;13.830;2023-12-28T03:14:45;96999.47;;;0.10;92.29
84232;BME280;74368;48.022;13.830;2023-12-28T03:17:10;97002.97;;;0.11;92.15
84232;BME280;74368;48.022;13.830;2023-12-28T03:19:39;97000.41;;;0.27;91.89
84232;BME280;74368;48.022;13.830;2023-12-28T03:22:04;96992.06;;;0.30;92.20
84232;BME280;74368;48.022;13.830;2023-12-28T03:24:29;96992.06;;;0.30;91.99
84232;BME280;74368;48.022;13.830;2023-12-28T03:26:55;96999.78;;;0.57;90.70
84232;BME280;74368;48.022;13.830;2023-12-28T03:29:20;97002.94;;;0.68;90.35
84232;BME280;74368;48.022;13.830;2023-12-28T03:31:45;96998.31;;;0.62;90.62
84232;BME280;74368;48.022;13.830;2023-12-28T03:34:11;97001.94;;;0.61;89.65
84232;BME280;74368;48.022;13.830;2023-12-28T03:36:36;97000.47;;;0.67;89.34
84232;BME280;74368;48.022;13.830;2023-12-28T03:39:01;96990.16;;;0.64;88.78
84232;BME280;74368;48.022;13.830;2023-12-28T03:41:28;97003.97;;;0.68;88.45
84232;BME280;74368;48.022;13.830;2023-12-28T03:43:54;96989.16;;;0.73;88.70
84232;BME280;74368;48.022;13.830;2023-12-28T03:46:19;96994.84;;;0.86;88.50
84232;BME280;74368;48.022;13.830;2023-12-28T03:48:44;97006.47;;;1.01;88.58
84232;BME280;74368;48.022;13.830;2023-12-28T03:51:13;97001.81;;;1.11;88.23
84232;BME280;74368;48.022;13.830;2023-12-28T03:53:40;96996.03;;;1.00;89.04
84232;BME280;74368;48.022;13.830;2023-12-28T03:56:05;96998.81;;;0.98;89.21
84232;BME280;74368;48.022;13.830;2023-12-28T03:58:30;96989.50;;;1.02;88.08
84232;BME280;74368;48.022;13.830;2023-12-28T04:00:56;97000.81;;;1.12;86.98
84232;BME280;74368;48.022;13.830;2023-12-28T04:03:21;96992.69;;;1.06;87.03
84232;BME280;74368;48.022;13.830;2023-12-28T04:05:46;96991.84;;;1.21;85.70
84232;BME280;74368;48.022;13.830;2023-12-28T04:08:12;96992.81;;;1.37;85.14
84232;BME280;74368;48.022;13.830;2023-12-28T04:10:37;96983.19;;;1.27;84.44
84232;BME280;74368;48.022;13.830;2023-12-28T04:13:03;96996.81;;;1.41;83.68
84232;BME280;74368;48.022;13.830;2023-12-28T04:15:29;96998.44;;;1.50;82.51
84232;BME280;74368;48.022;13.830;2023-12-28T04:17:55;97004.72;;;1.73;81.67
84232;BME280;74368;48.022;13.830;2023-12-28T04:20:20;96999.16;;;1.90;79.72
84232;BME280;74368;48.022;13.830;2023-12-28T04:22:45;97006.31;;;1.90;79.74
84232;BME280;74368;48.022;13.830;2023-12-28T04:25:11;97002.59;;;2.07;78.51
84232;BME280;74368;48.022;13.830;2023-12-28T04:27:41;97011.19;;;2.25;77.87
84232;BME280;74368;48.022;13.830;2023-12-28T04:30:07;97012.34;;;2.31;76.83
84232;BME280;74368;48.022;13.830;2023-12-28T04:32:32;97014.28;;;2.45;76.79
84232;BME280;74368;48.022;13.830;2023-12-28T04:34:57;97008.59;;;2.48;76.29
84232;BME280;74368;48.022;13.830;2023-12-28T04:37:23;96997.84;;;2.33;75.85
84232;BME280;74368;48.022;13.830;2023-12-28T04:39:48;97015.25;;;2.44;76.17
84232;BME280;74368;48.022;13.830;2023-12-28T04:42:14;97002.00;;;2.58;75.14
84232;BME280;74368;48.022;13.830;2023-12-28T04:44:39;97017.94;;;2.75;73.98
84232;BME280;74368;48.022;13.830;2023-12-28T04:47:05;97015.56;;;2.80;73.98
84232;BME280;74368;48.022;13.830;2023-12-28T04:49:30;97021.47;;;2.67;74.20
84232;BME280;74368;48.022;13.830;2023-12-28T04:51:56;97015.09;;;2.45;74.67
84232;BME280;74368;48.022;13.830;2023-12-28T04:54:21;97013.97;;;2.01;77.56
84232;BME280;74368;48.022;13.830;2023-12-28T04:56:47;97001.56;;;1.77;78.25
84232;BME280;74368;48.022;13.830;2023-12-28T04:59:12;97008.44;;;1.56;78.84
84232;BME280;74368;48.022;13.830;2023-12-28T05:01:44;97024.09;;;1.18;79.34
84232;BME280;74368;48.022;13.830;2023-12-28T05:04:10;97029.06;;;0.81;81.33
84232;BME280;74368;48.022;13.830;2023-12-28T05:06:36;97038.28;;;0.45;83.02
84232;BME280;74368;48.022;13.830;2023-12-28T05:09:02;97046.78;;;0.48;83.78
84232;BME280;74368;48.022;13.830;2023-12-28T05:11:27;97044.19;;;0.23;84.15
84232;BME280;74368;48.022;13.830;2023-12-28T05:13:53;97037.13;;;-0.03;85.57
84232;BME280;74368;48.022;13.830;2023-12-28T05:16:19;97046.69;;;-0.18;85.94
84232;BME280;74368;48.022;13.830;2023-12-28T05:18:45;97039.63;;;-0.27;87.16
84232;BME280;74368;48.022;13.830;2023-12-28T05:21:11;97042.50;;;0.14;86.98
84232;BME280;74368;48.022;13.830;2023-12-28T05:23:37;97013.88;;;0.49;84.69
84232;BME280;74368;48.022;13.830;2023-12-28T05:26:02;97027.09;;;0.91;82.79
84232;BME280;74368;48.022;13.830;2023-12-28T05:28:27;97026.75;;;1.02;81.39
84232;BME280;74368;48.022;13.830;2023-12-28T05:30:52;97024.78;;;1.04;81.65
84232;BME280;74368;48.022;13.830;2023-12-28T05:33:18;97040.69;;;0.88;82.55
84232;BME280;74368;48.022;13.830;2023-12-28T05:35:43;97044.34;;;0.63;82.61
84232;BME280;74368;48.022;13.830;2023-12-28T05:38:08;97046.56;;;0.34;83.24
84232;BME280;74368;48.022;13.830;2023-12-28T05:40:33;97032.84;;;0.05;83.44
84232;BME280;74368;48.022;13.830;2023-12-28T05:42:59;97034.56;;;-0.12;84.37
84232;BME280;74368;48.022;13.830;2023-12-28T05:45:24;97037.69;;;-0.17;85.63
84232;BME280;74368;48.022;13.830;2023-12-28T05:47:49;97034.50;;;-0.28;85.76
84232;BME280;74368;48.022;13.830;2023-12-28T05:50:15;97036.97;;;-0.27;86.05
84232;BME280;74368;48.022;13.830;2023-12-28T05:52:40;97030.16;;;-0.04;86.38
84232;BME280;74368;48.022;13.830;2023-12-28T05:55:06;97019.88;;;0.43;85.07
84232;BME280;74368;48.022;13.830;2023-12-28T05:57:31;97038.03;;;0.88;82.26
84232;BME280;74368;48.022;13.830;2023-12-28T05:59:57;97035.56;;;0.87;81.69
84232;BME280;74368;48.022;13.830;2023-12-28T06:02:22;97040.69;;;0.88;81.98
84232;BME280;74368;48.022;13.830;2023-12-28T06:04:48;97035.69;;;0.69;82.70
84232;BME280;74368;48.022;13.830;2023-12-28T06:07:13;97045.50;;;0.60;83.15
84232;BME280;74368;48.022;13.830;2023-12-28T06:09:38;97040.09;;;0.36;83.33
84232;BME280;74368;48.022;13.830;2023-12-28T06:12:05;97039.06;;;0.29;84.53
84232;BME280;74368;48.022;13.830;2023-12-28T06:14:30;97040.63;;;0.48;84.12
84232;BME280;74368;48.022;13.830;2023-12-28T06:16:56;97053.97;;;0.22;83.97
84232;BME280;74368;48.022;13.830;2023-12-28T06:19:21;97063.94;;;-0.14;83.47
84232;BME280;74368;48.022;13.830;2023-12-28T06:21:50;97061.88;;;-0.28;85.60
84232;BME280;74368;48.022;13.830;2023-12-28T06:24:15;97052.50;;;-0.40;86.31
84232;BME280;74368;48.022;13.830;2023-12-28T06:26:41;97050.34;;;-0.44;84.05
84232;BME280;74368;48.022;13.830;2023-12-28T06:29:08;97060.00;;;-0.61;85.51
84232;BME280;74368;48.022;13.830;2023-12-28T06:31:34;97058.03;;;-0.59;86.88
84232;BME280;74368;48.022;13.830;2023-12-28T06:34:04;97065.03;;;-0.76;86.17
84232;BME280;74368;48.022;13.830;2023-12-28T06:36:30;97066.84;;;-0.76;87.35
84232;BME280;74368;48.022;13.830;2023-12-28T06:38:56;97061.84;;;-0.79;87.28
84232;BME280;74368;48.022;13.830;2023-12-28T06:41:21;97064.94;;;-0.66;88.06
84232;BME280;74368;48.022;13.830;2023-12-28T06:43:46;97067.34;;;-0.73;86.94
84232;BME280;74368;48.022;13.830;2023-12-28T06:46:12;97072.66;;;-0.73;86.91
84232;BME280;74368;48.022;13.830;2023-12-28T06:48:37;97069.34;;;-0.75;87.73
84232;BME280;74368;48.022;13.830;2023-12-28T06:51:05;97070.78;;;-0.80;87.61
84232;BME280;74368;48.022;13.830;2023-12-28T06:53:30;97071.28;;;-0.59;88.15
84232;BME280;74368;48.022;13.830;2023-12-28T06:55:56;97066.94;;;-0.42;86.89
84232;BME280;74368;48.022;13.830;2023-12-28T06:58:21;97068.47;;;-0.06;86.01
84232;BME280;74368;48.022;13.830;2023-12-28T07:00:46;97069.84;;;0.06;84.66
84232;BME280;74368;48.022;13.830;2023-12-28T07:03:11;97062.00;;;-0.04;84.87
84232;BME280;74368;48.022;13.830;2023-12-28T07:05:37;97064.47;;;0.24;84.35
84232;BME280;74368;48.022;13.830;2023-12-28T07:08:02;97063.09;;;0.12;84.64
84232;BME280;74368;48.022;13.830;2023-12-28T07:10:28;97068.53;;;0.52;82.98
84232;BME280;74368;48.022;13.830;2023-12-28T07:12:53;97063.41;;;0.58;83.35
84232;BME280;74368;48.022;13.830;2023-12-28T07:15:18;97072.31;;;1.07;80.66
84232;BME280;74368;48.022;13.830;2023-12-28T07:17:44;97073.50;;;1.53;77.93
84232;BME280;74368;48.022;13.830;2023-12-28T07:20:09;97062.78;;;1.85;76.94
84232;BME280;74368;48.022;13.830;2023-12-28T07:22:36;97060.56;;;2.05;75.65
84232;BME280;74368;48.022;13.830;2023-12-28T07:25:01;97051.56;;;2.14;75.76
84232;BME280;74368;48.022;13.830;2023-12-28T07:27:26;97051.69;;;2.21;75.15
84232;BME280;74368;48.022;13.830;2023-12-28T07:29:52;97057.97;;;2.36;74.92
84232;BME280;74368;48.022;13.830;2023-12-28T07:32:17;97067.28;;;2.40;74.80
84232;BME280;74368;48.022;13.830;2023-12-28T07:34:42;97069.19;;;2.15;76.23
84232;BME280;74368;48.022;13.830;2023-12-28T07:37:07;97079.41;;;2.04;76.20
84232;BME280;74368;48.022;13.830;2023-12-28T07:39:33;97078.69;;;2.10;75.93
84232;BME280;74368;48.022;13.830;2023-12-28T07:41:59;97078.75;;;2.02;77.01
84232;BME280;74368;48.022;13.830;2023-12-28T07:44:24;97086.56;;;2.03;76.90
84232;BME280;74368;48.022;13.830;2023-12-28T07:46:50;97100.56;;;1.89;77.77
84232;BME280;74368;48.022;13.830;2023-12-28T07:49:15;97094.59;;;1.79;78.90
84232;BME280;74368;48.022;13.830;2023-12-28T07:51:41;97089.59;;;1.76;78.75
84232;BME280;74368;48.022;13.830;2023-12-28T07:54:06;97088.28;;;1.80;78.86
84232;BME280;74368;48.022;13.830;2023-12-28T07:56:31;97086.09;;;1.99;77.55
84232;BME280;74368;48.022;13.830;2023-12-28T07:58:56;97088.69;;;2.24;76.73
84232;BME280;74368;48.022;13.830;2023-12-28T08:01:22;97082.31;;;2.33;76.06
84232;BME280;74368;48.022;13.830;2023-12-28T08:03:47;97089.56;;;2.47;75.95
84232;BME280;74368;48.022;13.830;2023-12-28T08:06:13;97090.97;;;2.65;75.98
84232;BME280;74368;48.022;13.830;2023-12-28T08:08:38;97090.41;;;2.78;75.16
84232;BME280;74368;48.022;13.830;2023-12-28T08:11:04;97095.72;;;2.86;75.45
84232;BME280;74368;48.022;13.830;2023-12-28T08:13:29;97090.19;;;2.88;73.82
84232;BME280;74368;48.022;13.830;2023-12-28T08:15:54;97076.03;;;2.87;73.73
84232;BME280;74368;48.022;13.830;2023-12-28T08:18:19;97084.47;;;2.99;72.82
84232;BME280;74368;48.022;13.830;2023-12-28T08:20:45;97092.13;;;3.02;73.01
84232;BME280;74368;48.022;13.830;2023-12-28T08:23:10;97093.03;;;3.17;72.91
84232;BME280;74368;48.022;13.830;2023-12-28T08:25:35;97088.81;;;3.22;72.71
84232;BME280;74368;48.022;13.830;2023-12-28T08:28:01;97086.03;;;3.16;73.59
84232;BME280;74368;48.022;13.830;2023-12-28T08:30:26;97100.78;;;3.26;73.22
84232;BME280;74368;48.022;13.830;2023-12-28T08:32:52;97099.91;;;3.34;73.18
84232;BME280;74368;48.022;13.830;2023-12-28T08:35:18;97099.03;;;3.42;73.04
84232;BME280;74368;48.022;13.830;2023-12-28T08:37:43;97088.28;;;3.27;73.85
84232;BME280;74368;48.022;13.830;2023-12-28T08:40:08;97095.22;;;3.36;74.12
84232;BME280;74368;48.022;13.830;2023-12-28T08:42:34;97098.25;;;3.56;73.07
84232;BME280;74368;48.022;13.830;2023-12-28T08:44:59;97096.16;;;3.66;72.79
84232;BME280;74368;48.022;13.830;2023-12-28T08:47:24;97108.91;;;3.78;72.26
84232;BME280;74368;48.022;13.830;2023-12-28T08:49:50;97102.09;;;3.76;73.05
84232;BME280;74368;48.022;13.830;2023-12-28T08:52:15;97093.81;;;3.85;73.23
84232;BME280;74368;48.022;13.830;2023-12-28T08:54:40;97094.66;;;4.00;72.48
84232;BME280;74368;48.022;13.830;2023-12-28T08:57:06;97080.56;;;4.21;71.57
84232;BME280;74368;48.022;13.830;2023-12-28T08:59:35;97084.63;;;4.32;71.40
84232;BME280;74368;48.022;13.830;2023-12-28T09:02:01;97079.00;;;4.56;70.96
84232;BME280;74368;48.022;13.830;2023-12-28T09:04:26;97087.56;;;4.66;71.46
84232;BME280;74368;48.022;13.830;2023-12-28T09:06:52;97093.84;;;4.73;71.22
84232;BME280;74368;48.022;13.830;2023-12-28T09:09:18;97080.38;;;4.81;71.36
84232;BME280;74368;48.022;13.830;2023-12-28T09:11:46;97082.72;;;5.05;68.45
84232;BME280;74368;48.022;13.830;2023-12-28T09:14:11;97086.03;;;5.28;75.25
84232;BME280;74368;48.022;13.830;2023-12-28T09:16:36;97081.78;;;5.34;69.65
84232;BME280;74368;48.022;13.830;2023-12-28T09:19:02;97072.84;;;5.48;67.70
84232;BME280;74368;48.022;13.830;2023-12-28T09:21:27;97075.50;;;5.48;67.97
84232;BME280;74368;48.022;13.830;2023-12-28T09:23:52;97065.34;;;5.65;65.94
84232;BME280;74368;48.022;13.830;2023-12-28T09:26:18;97084.19;;;5.71;68.93
84232;BME280;74368;48.022;13.830;2023-12-28T09:28:43;97089.94;;;5.68;70.27
84232;BME280;74368;48.022;13.830;2023-12-28T09:31:09;97083.69;;;5.61;71.02
84232;BME280;74368;48.022;13.830;2023-12-28T09:33:35;97087.69;;;5.51;72.17
84232;BME280;74368;48.022;13.830;2023-12-28T09:36:03;97077.63;;;5.53;73.45
84232;BME280;74368;48.022;13.830;2023-12-28T09:38:28;97074.47;;;5.43;73.96
84232;BME280;74368;48.022;13.830;2023-12-28T09:40:54;97074.25;;;5.44;73.64
84232;BME280;74368;48.022;13.830;2023-12-28T09:45:49;97073.09;;;5.53;71.01
84232;BME280;74368;48.022;13.830;2023-12-28T09:48:19;97069.44;;;5.61;70.98
84232;BME280;74368;48.022;13.830;2023-12-28T09:50:52;97070.66;;;5.58;70.71
84232;BME280;74368;48.022;13.830;2023-12-28T09:53:23;97080.28;;;5.53;71.82
84232;BME280;74368;48.022;13.830;2023-12-28T09:55:49;97090.00;;;5.54;72.16
84232;BME280;74368;48.022;13.830;2023-12-28T09:58:16;97072.25;;;5.53;71.68
84232;BME280;74368;48.022;13.830;2023-12-28T10:00:46;97070.16;;;5.69;71.62
84232;BME280;74368;48.022;13.830;2023-12-28T10:03:15;97058.28;;;5.78;71.87
84232;BME280;74368;48.022;13.830;2023-12-28T10:05:43;97066.50;;;5.77;72.67
84232;BME280;74368;48.022;13.830;2023-12-28T10:08:11;97066.50;;;5.77;73.84
84232;BME280;74368;48.022;13.830;2023-12-28T10:10:36;97057.38;;;5.92;72.46
84232;BME280;74368;48.022;13.830;2023-12-28T10:13:01;97058.63;;;6.24;70.85
84232;BME280;74368;48.022;13.830;2023-12-28T10:15:27;97056.72;;;6.52;69.00
84232;BME280;74368;48.022;13.830;2023-12-28T10:17:52;97052.53;;;6.84;67.07
84232;BME280;74368;48.022;13.830;2023-12-28T10:20:18;97063.94;;;6.93;70.31
84232;BME280;74368;48.022;13.830;2023-12-28T10:22:43;97056.09;;;6.98;70.05
84232;BME280;74368;48.022;13.830;2023-12-28T10:25:09;97042.06;;;7.09;67.98
84232;BME280;74368;48.022;13.830;2023-12-28T10:27:41;97038.59;;;7.28;65.85
84232;BME280;74368;48.022;13.830;2023-12-28T10:30:09;97035.97;;;7.54;65.70
84232;BME280;74368;48.022;13.830;2023-12-28T10:32:35;97030.41;;;7.69;64.98
84232;BME280;74368;48.022;13.830;2023-12-28T10:35:01;97029.16;;;7.71;65.22
84232;BME280;74368;48.022;13.830;2023-12-28T10:37:27;97020.66;;;7.87;64.26
84232;BME280;74368;48.022;13.830;2023-12-28T10:39:54;97019.81;;;8.07;63.61
84232;BME280;74368;48.022;13.830;2023-12-28T10:42:29;97020.41;;;8.35;61.57
84232;BME280;74368;48.022;13.830;2023-12-28T10:45:02;97018.28;;;8.56;61.01
84232;BME280;74368;48.022;13.830;2023-12-28T10:47:31;97018.66;;;8.73;60.42
84232;BME280;74368;48.022;13.830;2023-12-28T10:50:03;97012.81;;;8.83;57.26
84232;BME280;74368;48.022;13.830;2023-12-28T10:52:31;97013.13;;;8.99;56.29
84232;BME280;74368;48.022;13.830;2023-12-28T10:57:58;97020.63;;;9.28;55.86
84232;BME280;74368;48.022;13.830;2023-12-28T11:00:25;97014.00;;;9.31;57.38
84232;BME280;74368;48.022;13.830;2023-12-28T11:02:52;97009.19;;;9.33;58.87
84232;BME280;74368;48.022;13.830;2023-12-28T11:05:22;96988.66;;;9.32;55.47
84232;BME280;74368;48.022;13.830;2023-12-28T11:07:50;96999.19;;;9.40;55.18
84232;BME280;74368;48.022;13.830;2023-12-28T11:10:19;96996.50;;;9.40;56.14
84232;BME280;74368;48.022;13.830;2023-12-28T11:12:45;96998.94;;;9.48;55.26
84232;BME280;74368;48.022;13.830;2023-12-28T11:15:11;96986.63;;;9.59;53.89
84232;BME280;74368;48.022;13.830;2023-12-28T11:17:37;96978.25;;;9.67;54.17
84232;BME280;74368;48.022;13.830;2023-12-28T11:20:03;96983.59;;;9.73;53.75
84232;BME280;74368;48.022;13.830;2023-12-28T11:22:32;96973.88;;;9.90;53.62
84232;BME280;74368;48.022;13.830;2023-12-28T11:24:58;96969.28;;;9.98;54.32
84232;BME280;74368;48.022;13.830;2023-12-28T11:27:24;96980.09;;;10.16;53.55
84232;BME280;74368;48.022;13.830;2023-12-28T11:29:49;96973.44;;;10.18;53.98
84232;BME280;74368;48.022;13.830;2023-12-28T11:32:17;96969.47;;;9.96;57.01
84232;BME280;74368;48.022;13.830;2023-12-28T11:34:44;96959.44;;;10.03;54.71
84232;BME280;74368;48.022;13.830;2023-12-28T11:37:13;96960.69;;;10.25;52.47
84232;BME280;74368;48.022;13.830;2023-12-28T11:39:43;96958.38;;;10.29;53.94
84232;BME280;74368;48.022;13.830;2023-12-28T11:42:10;96954.25;;;10.44;53.09
84232;BME280;74368;48.022;13.830;2023-12-28T11:44:41;96950.34;;;10.40;53.94
84232;BME280;74368;48.022;13.830;2023-12-28T11:49:44;96939.91;;;10.62;52.20
84232;BME280;74368;48.022;13.830;2023-12-28T11:52:25;96944.97;;;10.88;50.11
84232;BME280;74368;48.022;13.830;2023-12-28T11:54:51;96949.41;;;11.12;49.32
84232;BME280;74368;48.022;13.830;2023-12-28T11:57:17;96939.22;;;11.26;48.18
84232;BME280;74368;48.022;13.830;2023-12-28T11:59:43;96940.19;;;11.32;49.21
84232;BME280;74368;48.022;13.830;2023-12-28T12:02:09;96931.97;;;11.50;48.29
84232;BME280;74368;48.022;13.830;2023-12-28T12:04:36;96930.56;;;11.47;48.45
84232;BME280;74368;48.022;13.830;2023-12-28T12:07:02;96944.22;;;11.64;49.49
84232;BME280;74368;48.022;13.830;2023-12-28T12:09:28;96939.41;;;11.66;48.74
84232;BME280;74368;48.022;13.830;2023-12-28T12:11:57;96944.75;;;11.72;48.86
84232;BME280;74368;48.022;13.830;2023-12-28T12:14:23;96945.91;;;11.65;46.72
84232;BME280;74368;48.022;13.830;2023-12-28T12:16:48;96947.47;;;11.84;42.87
84232;BME280;74368;48.022;13.830;2023-12-28T12:19:15;96949.09;;;11.73;45.51
84232;BME280;74368;48.022;13.830;2023-12-28T12:21:40;96938.00;;;11.63;47.62
84232;BME280;74368;48.022;13.830;2023-12-28T12:24:06;96942.22;;;11.48;53.01
84232;BME280;74368;48.022;13.830;2023-12-28T12:26:32;96943.25;;;11.47;54.32
84232;BME280;74368;48.022;13.830;2023-12-28T12:29:01;96945.03;;;11.41;55.54
84232;BME280;74368;48.022;13.830;2023-12-28T12:31:28;96941.84;;;11.44;55.78
84232;BME280;74368;48.022;13.830;2023-12-28T12:33:53;96924.91;;;11.37;56.32
84232;BME280;74368;48.022;13.830;2023-12-28T12:36:19;96934.81;;;11.43;66.01
84232;BME280;74368;48.022;13.830;2023-12-28T12:38:45;96936.31;;;11.39;65.58
84232;BME280;74368;48.022;13.830;2023-12-28T12:41:10;96933.13;;;11.42;64.10
84232;BME280;74368;48.022;13.830;2023-12-28T12:43:37;96930.44;;;11.42;64.08
84232;BME280;74368;48.022;13.830;2023-12-28T12:46:04;96944.78;;;11.43;63.79
84232;BME280;74368;48.022;13.830;2023-12-28T12:48:29;96941.38;;;11.47;61.39
84232;BME280;74368;48.022;13.830;2023-12-28T12:50:54;96944.69;;;11.49;60.52
84232;BME280;74368;48.022;13.830;2023-12-28T12:53:21;96935.78;;;11.60;58.53
84232;BME280;74368;48.022;13.830;2023-12-28T12:55:47;96944.34;;;11.57;59.27
84232;BME280;74368;48.022;13.830;2023-12-28T12:58:13;96941.66;;;11.57;58.62
84232;BME280;74368;48.022;13.830;2023-12-28T13:00:41;96943.25;;;11.47;57.54
84232;BME280;74368;48.022;13.830;2023-12-28T13:03:10;96941.25;;;11.42;59.40
84232;BME280;74368;48.022;13.830;2023-12-28T13:05:36;96943.50;;;11.45;59.84
84232;BME280;74368;48.022;13.830;2023-12-28T13:08:02;96922.44;;;11.47;58.54